Time;durP1;ratioP1;P1;durP2;ratioP2;P2;SDS_P1;SDS_P2;PMS_P1;PMS_P2;Temp;Humidity;BMP_temperature;BMP_pressure;BME280_temperature;BME280_humidity;BME280_pressure;Samples;Min_cycle;Max_cycle;Signal;HPM_P1;HPM_P2
2022/04/06 00:01:47;;;;;;;12.63;4.00;;;11.40;99.90;;;;;;6229706;23;20489;-95
2022/04/06 00:04:16;;;;;;;19.03;4.00;;;11.30;99.90;;;;;;6232668;23;20586;-95
2022/04/06 00:06:43;;;;;;;15.30;3.43;;;11.20;99.90;;;;;;6231846;23;20148;-94
2022/04/06 00:09:11;;;;;;;17.23;4.17;;;11.30;99.90;;;;;;6232507;23;20140;-95
2022/04/06 00:11:37;;;;;;;12.83;3.97;;;11.40;99.90;;;;;;6240617;23;20150;-94
2022/04/06 00:14:07;;;;;;;15.40;4.80;;;11.40;99.90;;;;;;6239866;23;20215;-95
2022/04/06 00:16:51;;;;;;;14.17;3.80;;;11.40;99.90;;;;;;6231147;23;20183;-93
2022/04/06 00:19:18;;;;;;;20.37;4.23;;;11.40;99.90;;;;;;6230984;23;20155;-94
2022/04/06 00:21:46;;;;;;;14.23;3.20;;;11.50;99.90;;;;;;6237074;23;20143;-95
2022/04/06 00:24:13;;;;;;;10.57;3.70;;;11.50;99.90;;;;;;6236756;23;20147;-95
2022/04/06 00:26:43;;;;;;;17.97;3.73;;;11.50;99.90;;;;;;6239572;23;20147;-96
2022/04/06 00:29:10;;;;;;;15.43;4.03;;;11.60;99.90;;;;;;6215961;23;20208;-96
2022/04/06 00:31:39;;;;;;;14.40;3.53;;;11.50;99.90;;;;;;6239748;23;20157;-96
2022/04/06 00:34:07;;;;;;;16.63;4.03;;;11.50;99.90;;;;;;6239652;23;20147;-95
2022/04/06 00:36:35;;;;;;;15.37;4.23;;;11.40;99.90;;;;;;6240621;23;20149;-96
2022/04/06 00:39:07;;;;;;;15.03;4.03;;;11.50;99.90;;;;;;6239041;23;20148;-96
2022/04/06 00:41:38;;;;;;;14.80;3.80;;;11.50;99.90;;;;;;6238621;23;20174;-94
2022/04/06 00:44:28;;;;;;;16.07;3.77;;;11.40;99.90;;;;;;6238729;23;20147;-95
2022/04/06 00:46:54;;;;;;;13.30;4.57;;;11.30;99.90;;;;;;6240233;23;20151;-96
2022/04/06 00:49:23;;;;;;;15.77;4.67;;;11.30;99.90;;;;;;6213665;23;20176;-93
2022/04/06 00:51:51;;;;;;;15.43;4.70;;;11.30;99.90;;;;;;6232963;23;20175;-95
2022/04/06 00:54:21;;;;;;;15.83;4.30;;;11.20;99.90;;;;;;6236023;23;20218;-95
2022/04/06 00:56:49;;;;;;;18.40;5.00;;;11.30;99.90;;;;;;6228024;23;20203;-95
2022/04/06 00:59:18;;;;;;;12.73;3.50;;;11.20;99.90;;;;;;6228926;23;20144;-94
2022/04/06 01:01:50;;;;;;;16.47;4.17;;;11.20;99.90;;;;;;6228800;23;20143;-95
2022/04/06 01:04:17;;;;;;;16.03;4.13;;;11.30;99.90;;;;;;6231772;23;20173;-95
2022/04/06 01:06:48;;;;;;;17.07;3.93;;;11.30;99.90;;;;;;6232383;23;20143;-95
2022/04/06 01:09:20;;;;;;;16.00;3.90;;;11.30;99.90;;;;;;6208406;23;20155;-94
2022/04/06 01:11:48;;;;;;;16.50;4.50;;;11.20;99.90;;;;;;6232976;23;20194;-95
2022/04/06 01:14:19;;;;;;;18.60;4.03;;;11.20;99.90;;;;;;6228287;23;20147;-95
2022/04/06 01:17:04;;;;;;;16.60;3.67;;;11.20;99.90;;;;;;6230537;23;20154;-93
2022/04/06 01:19:43;;;;;;;20.13;4.87;;;11.20;99.90;;;;;;6230582;23;20168;-96
2022/04/06 01:22:14;;;;;;;14.87;4.23;;;11.10;99.90;;;;;;6231156;23;20147;-95
2022/04/06 01:24:43;;;;;;;15.27;3.67;;;11.20;99.90;;;;;;6227018;23;20214;-95
2022/04/06 01:27:12;;;;;;;14.90;4.20;;;11.20;99.90;;;;;;6229105;23;20139;-95
2022/04/06 01:29:40;;;;;;;16.80;4.33;;;11.20;99.90;;;;;;6233086;23;20155;-94
2022/04/06 01:32:24;;;;;;;11.17;3.30;;;11.10;99.90;;;;;;6226815;23;20221;-94
2022/04/06 01:34:54;;;;;;;13.73;4.30;;;11.20;99.90;;;;;;6224622;23;20143;-93
2022/04/06 01:37:26;;;;;;;15.27;3.90;;;11.20;99.90;;;;;;6225980;23;20465;-95
2022/04/06 01:39:55;;;;;;;16.00;3.77;;;11.20;99.90;;;;;;6228590;23;20151;-93
2022/04/06 01:42:24;;;;;;;21.57;5.00;;;11.20;99.90;;;;;;6230743;23;20169;-95
2022/04/06 01:44:52;;;;;;;16.27;3.73;;;11.30;99.90;;;;;;6232139;23;20193;-95
2022/04/06 01:47:20;;;;;;;8.70;3.40;;;11.30;99.90;;;;;;6232169;23;20151;-95
2022/04/06 01:52:36;;;;;;;10.13;3.73;;;11.30;99.90;;;;;;6254833;23;20177;-95
2022/04/06 01:55:13;;;;;;;16.23;3.10;;;11.20;99.90;;;;;;6229880;23;20150;-94
2022/04/06 01:57:40;;;;;;;13.97;3.23;;;11.20;99.90;;;;;;6243212;23;20149;-94
2022/04/06 02:00:15;;;;;;;12.10;3.80;;;11.10;99.90;;;;;;6241430;23;20159;-92
2022/04/06 02:02:47;;;;;;;14.30;3.77;;;11.30;99.90;;;;;;6229005;23;20592;-93
2022/04/06 02:05:16;;;;;;;14.37;4.27;;;11.20;99.90;;;;;;6224197;23;20187;-94
2022/04/06 02:07:43;;;;;;;13.73;3.17;;;11.20;99.90;;;;;;6224358;23;20538;-94
2022/04/06 02:10:16;;;;;;;14.60;3.33;;;11.10;99.90;;;;;;6223542;23;20147;-93
2022/04/06 02:12:42;;;;;;;22.27;4.00;;;11.20;99.90;;;;;;6223382;23;20174;-94
2022/04/06 02:15:14;;;;;;;11.90;3.20;;;11.20;99.90;;;;;;6223762;23;20147;-94
2022/04/06 02:17:42;;;;;;;17.73;3.60;;;11.20;99.90;;;;;;6224289;23;20153;-95
2022/04/06 02:20:11;;;;;;;9.07;3.10;;;11.20;99.90;;;;;;6223201;23;20226;-93
2022/04/06 02:22:40;;;;;;;18.50;4.20;;;11.20;99.90;;;;;;6222966;23;20584;-94
2022/04/06 02:25:12;;;;;;;20.30;4.10;;;11.30;99.90;;;;;;6233255;23;20214;-95
2022/04/06 02:27:52;;;;;;;16.60;3.60;;;11.20;99.90;;;;;;6233904;23;20594;-94
2022/04/06 02:30:20;;;;;;;14.87;3.40;;;11.20;99.90;;;;;;6225349;23;20377;-94
2022/04/06 02:32:46;;;;;;;13.50;3.47;;;11.10;99.90;;;;;;6226680;23;20151;-94
2022/04/06 02:35:15;;;;;;;16.43;3.77;;;11.00;99.90;;;;;;6230653;23;20147;-96
2022/04/06 02:37:43;;;;;;;17.20;4.43;;;11.10;99.90;;;;;;6235360;23;20139;-92
2022/04/06 02:40:11;;;;;;;12.50;3.60;;;11.00;99.90;;;;;;6232070;23;20147;-94
2022/04/06 02:42:36;;;;;;;15.90;3.90;;;11.10;99.90;;;;;;6234345;23;20176;-94
2022/04/06 02:45:02;;;;;;;11.13;3.67;;;10.90;99.90;;;;;;6232070;23;20202;-94
2022/04/06 02:47:29;;;;;;;9.10;3.27;;;10.80;99.90;;;;;;6233639;23;20150;-94
2022/04/06 02:49:56;;;;;;;11.77;3.03;;;10.70;99.90;;;;;;6235608;23;20143;-94
2022/04/06 02:52:29;;;;;;;10.53;2.70;;;10.80;99.90;;;;;;6234119;23;20620;-95
2022/04/06 02:54:58;;;;;;;12.20;3.43;;;10.70;99.90;;;;;;6235463;23;20149;-96
2022/04/06 02:57:25;;;;;;;12.70;2.97;;;10.70;99.90;;;;;;6237668;23;20157;-95
2022/04/06 02:59:52;;;;;;;15.27;3.43;;;10.80;99.90;;;;;;6241276;23;20187;-94
2022/04/06 03:02:21;;;;;;;12.50;3.13;;;10.90;99.90;;;;;;6234701;23;20238;-94
2022/04/06 03:04:49;;;;;;;12.27;3.47;;;10.90;99.90;;;;;;6228842;23;20190;-94
2022/04/06 03:07:21;;;;;;;13.43;3.90;;;10.80;99.90;;;;;;6228933;23;20154;-95
2022/04/06 03:09:50;;;;;;;9.93;2.63;;;10.90;99.90;;;;;;6222866;23;20241;-94
2022/04/06 03:12:17;;;;;;;15.80;3.67;;;11.00;99.90;;;;;;6224902;23;20151;-94
2022/04/06 03:14:45;;;;;;;11.37;3.50;;;11.00;99.90;;;;;;6223642;23;20161;-93
2022/04/06 03:17:15;;;;;;;13.27;3.30;;;11.00;99.90;;;;;;6220922;23;20159;-94
2022/04/06 03:19:43;;;;;;;12.67;3.10;;;11.10;99.90;;;;;;6222613;23;20171;-94
2022/04/06 03:22:17;;;;;;;9.93;2.60;;;11.10;99.90;;;;;;6222074;23;20158;-95
2022/04/06 03:24:45;;;;;;;12.70;3.50;;;11.10;99.90;;;;;;6225362;23;20174;-94
2022/04/06 03:27:12;;;;;;;15.37;3.03;;;10.80;99.90;;;;;;6226888;23;20207;-96
2022/04/06 03:29:41;;;;;;;11.57;3.53;;;10.70;99.90;;;;;;6232483;23;20171;-96
2022/04/06 09:15:23;;;;;;;10.23;1.80;;;12.70;99.90;;;;;;6277784;22;20209;-91
2022/04/06 15:26:26;;;;;;;8.70;2.90;;;13.00;99.90;;;;;;6185892;23;20192;-94
2022/04/06 15:28:52;;;;;;;5.13;2.67;;;13.00;99.90;;;;;;6214594;23;20152;-91
2022/04/06 15:31:17;;;;;;;7.10;2.90;;;12.50;99.90;;;;;;6214265;23;20152;-90
2022/04/06 15:33:43;;;;;;;5.10;2.67;;;12.30;99.90;;;;;;6214605;23;20244;-90
2022/04/06 15:38:53;;;;;;;4.63;2.80;;;11.90;99.90;;;;;;6215395;23;20219;-90
2022/04/06 15:41:20;;;;;;;7.17;3.63;;;11.90;99.90;;;;;;6214389;23;20573;-90
2022/04/06 15:43:45;;;;;;;8.07;4.30;;;11.80;99.90;;;;;;6214194;23;20144;-90
2022/04/06 15:46:11;;;;;;;8.17;4.73;;;11.80;99.90;;;;;;6214235;23;20254;-91
2022/04/06 15:48:37;;;;;;;13.87;9.10;;;11.80;99.90;;;;;;6214281;23;20475;-92
2022/04/06 15:51:02;;;;;;;15.83;10.47;;;11.80;99.90;;;;;;6214303;23;20577;-90
2022/04/06 15:54:06;;;;;;;8.33;5.60;;;11.90;99.90;;;;;;6214136;23;20154;-94
2022/04/06 15:56:31;;;;;;;9.20;5.67;;;12.00;99.90;;;;;;6214399;23;20159;-92
2022/04/06 15:58:59;;;;;;;5.80;4.57;;;11.80;99.90;;;;;;6214606;23;20162;-92
2022/04/06 16:01:25;;;;;;;5.13;4.27;;;11.80;99.90;;;;;;6216361;23;20177;-92
2022/04/06 16:03:51;;;;;;;4.80;4.23;;;11.70;99.90;;;;;;6216337;23;20144;-93
2022/04/06 16:06:16;;;;;;;6.77;4.77;;;11.60;99.90;;;;;;6216018;23;20176;-92
2022/04/06 16:08:42;;;;;;;8.13;4.30;;;11.60;99.90;;;;;;6216530;23;20151;-91
2022/04/06 16:11:07;;;;;;;11.00;5.60;;;11.60;99.90;;;;;;6216192;23;20230;-91
2022/04/06 16:13:33;;;;;;;8.77;4.37;;;11.70;99.90;;;;;;6216432;23;20482;-91
2022/04/06 16:15:59;;;;;;;5.30;3.97;;;11.80;99.90;;;;;;6216684;23;20148;-92
2022/04/06 16:18:24;;;;;;;9.43;5.00;;;11.70;99.90;;;;;;6216662;23;20633;-91
2022/04/06 16:20:50;;;;;;;6.30;4.50;;;11.80;99.90;;;;;;6216366;23;20152;-92
2022/04/06 16:23:15;;;;;;;7.80;4.63;;;11.60;99.90;;;;;;6216097;23;20147;-91
2022/04/06 16:25:41;;;;;;;8.57;4.77;;;11.60;99.90;;;;;;6216355;23;20322;-92
2022/04/06 16:28:07;;;;;;;5.53;4.43;;;11.60;99.90;;;;;;6216294;23;20171;-92
2022/04/06 16:30:35;;;;;;;10.03;4.97;;;11.60;99.90;;;;;;6216506;23;20152;-91
2022/04/06 16:33:01;;;;;;;8.60;4.77;;;11.60;99.90;;;;;;6216421;23;20143;-91
2022/04/06 16:35:26;;;;;;;7.17;4.70;;;11.70;99.90;;;;;;6216243;23;20140;-92
2022/04/06 16:37:52;;;;;;;7.87;5.10;;;11.70;99.90;;;;;;6216914;23;20154;-91
2022/04/06 16:40:18;;;;;;;22.40;12.10;;;11.60;99.90;;;;;;6216745;23;20636;-92
2022/04/06 16:42:44;;;;;;;7.53;5.30;;;11.70;99.90;;;;;;6218017;23;20156;-91
2022/04/06 16:45:11;;;;;;;6.83;5.23;;;11.60;99.90;;;;;;6219015;23;20456;-92
2022/04/06 16:47:37;;;;;;;10.50;5.87;;;11.60;99.90;;;;;;6217742;23;20151;-92
2022/04/06 16:52:51;;;;;;;5.23;4.63;;;11.60;99.90;;;;;;6216997;23;20178;-92
2022/04/06 16:55:18;;;;;;;6.30;4.00;;;11.60;99.90;;;;;;6215892;23;20148;-90
2022/04/06 16:57:45;;;;;;;8.40;5.80;;;11.60;99.90;;;;;;6215218;23;20160;-91
2022/04/06 17:00:15;;;;;;;7.07;4.83;;;11.60;99.90;;;;;;6215595;23;20159;-92
2022/04/06 17:02:43;;;;;;;7.03;4.20;;;11.50;99.90;;;;;;6215433;23;20155;-91
2022/04/06 17:05:14;;;;;;;10.13;4.97;;;11.40;99.90;;;;;;6215222;23;20275;-92
2022/04/06 17:07:43;;;;;;;6.70;3.73;;;11.30;99.90;;;;;;6215529;23;20159;-92
2022/04/06 17:10:10;;;;;;;4.30;3.40;;;11.10;99.90;;;;;;6215369;23;20144;-91
2022/04/06 17:12:35;;;;;;;6.03;4.17;;;10.80;99.90;;;;;;6215225;23;20148;-92
2022/04/06 17:15:01;;;;;;;4.63;3.33;;;10.70;99.90;;;;;;6215611;23;20159;-91
2022/04/06 17:17:27;;;;;;;8.07;4.10;;;10.50;99.90;;;;;;6221388;23;20150;-92
2022/04/06 17:19:53;;;;;;;5.70;3.60;;;10.50;99.90;;;;;;6222633;23;20140;-91
2022/04/06 17:22:20;;;;;;;5.37;3.83;;;10.50;99.90;;;;;;6215677;23;20600;-91
2022/04/06 17:24:47;;;;;;;6.27;4.10;;;10.50;99.90;;;;;;6215382;23;20572;-92
2022/04/06 17:27:13;;;;;;;6.17;3.67;;;10.60;99.90;;;;;;6215386;23;20179;-91
2022/04/06 17:29:40;;;;;;;8.43;4.83;;;10.70;99.90;;;;;;6215669;23;20146;-92
2022/04/06 17:32:05;;;;;;;5.83;3.90;;;10.70;99.90;;;;;;6215118;23;20172;-93
2022/04/06 17:34:31;;;;;;;6.17;5.33;;;10.70;99.90;;;;;;6215089;23;20140;-90
2022/04/06 17:36:57;;;;;;;7.10;4.53;;;10.70;99.90;;;;;;6215427;23;20243;-91
2022/04/06 17:39:25;;;;;;;6.60;4.00;;;10.70;99.90;;;;;;6215159;23;20152;-92
2022/04/06 17:41:51;;;;;;;5.33;3.67;;;10.70;99.90;;;;;;6215378;23;20144;-92
2022/04/06 17:44:18;;;;;;;8.40;4.40;;;10.60;99.90;;;;;;6215513;23;20150;-93
2022/04/06 17:46:44;;;;;;;6.03;4.20;;;10.60;99.90;;;;;;6215350;23;20179;-92
2022/04/06 17:49:10;;;;;;;5.70;4.10;;;10.60;99.90;;;;;;6215400;23;20203;-92
2022/04/06 17:51:39;;;;;;;7.20;4.30;;;10.60;99.90;;;;;;6215971;23;20179;-92
2022/04/06 17:54:06;;;;;;;6.23;3.90;;;10.70;99.90;;;;;;6215745;23;20228;-91
2022/04/06 17:56:32;;;;;;;5.17;3.83;;;10.60;99.90;;;;;;6215543;23;20160;-93
2022/04/06 17:58:58;;;;;;;8.20;5.07;;;10.70;99.90;;;;;;6215273;23;20250;-92
2022/04/06 18:01:24;;;;;;;5.00;4.00;;;10.70;99.90;;;;;;6215020;23;20585;-91
2022/04/06 18:03:50;;;;;;;8.03;4.53;;;10.70;99.90;;;;;;6215089;23;20161;-93
2022/04/06 18:06:15;;;;;;;5.17;3.60;;;10.70;99.90;;;;;;6215033;23;20210;-91
2022/04/06 18:08:41;;;;;;;4.83;3.80;;;10.70;99.90;;;;;;6214970;23;20604;-92
2022/04/06 18:13:51;;;;;;;5.20;4.07;;;10.60;99.90;;;;;;6216260;23;20163;-92
2022/04/06 18:16:17;;;;;;;5.57;4.20;;;10.60;99.90;;;;;;6214992;23;20575;-93
2022/04/06 18:18:47;;;;;;;8.90;5.17;;;10.60;99.90;;;;;;6214865;23;20155;-92
2022/04/06 18:21:15;;;;;;;7.83;5.33;;;10.70;99.90;;;;;;6215142;23;20152;-92
2022/04/06 18:23:40;;;;;;;8.23;4.97;;;10.70;99.90;;;;;;6215258;23;20141;-92
2022/04/06 18:26:09;;;;;;;9.20;5.63;;;10.80;99.90;;;;;;6214785;23;20670;-93
2022/04/06 18:28:39;;;;;;;6.67;5.10;;;10.80;99.90;;;;;;6214718;23;20258;-90
2022/04/06 18:31:09;;;;;;;12.43;6.93;;;10.80;99.90;;;;;;6214437;23;20156;-92
2022/04/06 18:33:36;;;;;;;10.37;5.23;;;10.90;99.90;;;;;;6214845;23;20148;-91
2022/04/06 18:36:02;;;;;;;9.17;6.03;;;10.90;99.90;;;;;;6214923;23;20531;-92
2022/04/06 18:38:28;;;;;;;9.47;5.73;;;10.90;99.90;;;;;;6214772;23;20152;-93
2022/04/06 18:40:56;;;;;;;15.37;7.23;;;10.90;99.90;;;;;;6214318;23;20160;-90
2022/04/06 18:43:23;;;;;;;12.30;6.90;;;10.80;99.90;;;;;;6214917;23;20152;-91
2022/04/06 18:45:54;;;;;;;14.77;6.90;;;10.80;99.90;;;;;;6214486;23;20187;-92
2022/04/06 18:48:19;;;;;;;17.20;9.27;;;10.90;99.90;;;;;;6214658;23;20635;-91
2022/04/06 18:50:45;;;;;;;17.13;10.63;;;11.00;99.90;;;;;;6214503;23;20156;-91
2022/04/06 18:53:13;;;;;;;17.67;8.67;;;11.00;99.90;;;;;;6215038;23;20200;-90
2022/04/06 18:55:39;;;;;;;22.50;12.07;;;11.00;99.90;;;;;;6214522;23;20265;-92
2022/04/06 18:58:05;;;;;;;29.60;16.23;;;11.00;99.90;;;;;;6214674;23;20153;-92
2022/04/06 19:00:32;;;;;;;39.47;24.73;;;11.00;99.90;;;;;;6214049;23;20206;-92
2022/04/06 19:02:58;;;;;;;31.47;17.27;;;11.00;99.90;;;;;;6215115;23;20151;-91
2022/04/06 19:05:27;;;;;;;17.70;10.07;;;11.00;99.90;;;;;;6214862;23;20242;-90
2022/04/06 19:07:53;;;;;;;17.37;8.80;;;11.10;99.90;;;;;;6214708;23;20580;-91
2022/04/06 19:10:19;;;;;;;12.07;7.03;;;11.10;99.90;;;;;;6214660;23;20155;-92
2022/04/06 19:12:45;;;;;;;11.37;7.03;;;11.00;99.90;;;;;;6216689;23;20230;-90
2022/04/06 19:15:10;;;;;;;10.70;7.73;;;11.10;99.90;;;;;;6221327;23;20148;-91
2022/04/06 19:17:37;;;;;;;9.07;6.53;;;11.10;99.90;;;;;;6215630;23;20209;-92
2022/04/06 19:20:09;;;;;;;13.40;9.03;;;11.00;99.90;;;;;;6214525;23;20206;-92
2022/04/06 19:22:34;;;;;;;8.57;4.80;;;11.00;99.90;;;;;;6214652;23;20230;-92
2022/04/06 19:25:00;;;;;;;10.33;6.60;;;11.10;99.90;;;;;;6214415;23;20215;-91
2022/04/06 19:27:26;;;;;;;6.17;5.13;;;11.20;99.90;;;;;;6213826;23;20613;-91
2022/04/06 19:29:54;;;;;;;9.37;6.90;;;11.20;99.90;;;;;;6214282;23;20159;-92
2022/04/06 19:32:21;;;;;;;4.50;4.03;;;11.30;99.90;;;;;;6214242;23;20151;-92
2022/04/06 19:34:46;;;;;;;6.80;3.57;;;11.20;99.90;;;;;;6215344;23;20219;-93
2022/04/06 19:37:14;;;;;;;4.80;4.30;;;11.20;99.90;;;;;;6216153;23;20591;-90
2022/04/06 19:39:40;;;;;;;6.90;3.47;;;11.10;99.90;;;;;;6216274;23;20159;-91
2022/04/06 19:42:06;;;;;;;4.77;3.50;;;11.10;99.90;;;;;;6216378;23;20152;-92
2022/04/06 19:44:34;;;;;;;7.03;3.33;;;11.20;99.90;;;;;;6215914;23;20158;-92
2022/04/06 19:47:03;;;;;;;4.23;3.63;;;11.20;99.90;;;;;;6216151;23;20622;-92
2022/04/06 19:49:33;;;;;;;4.50;4.07;;;11.20;99.90;;;;;;6216324;23;20581;-93
2022/04/06 19:52:02;;;;;;;13.73;11.93;;;11.10;99.90;;;;;;6216422;23;20499;-91
2022/04/06 19:54:29;;;;;;;10.37;6.77;;;11.00;99.90;;;;;;6216253;23;20473;-92
2022/04/06 19:56:57;;;;;;;5.47;4.10;;;11.00;99.90;;;;;;6220940;23;20162;-92
2022/04/06 19:59:23;;;;;;;5.30;3.57;;;11.00;99.90;;;;;;6220561;23;20160;-93
2022/04/06 20:01:48;;;;;;;6.33;4.20;;;11.00;99.90;;;;;;6220966;23;20230;-93
2022/04/06 20:04:14;;;;;;;6.83;3.23;;;11.10;99.90;;;;;;6220340;23;20588;-91
2022/04/06 20:06:39;;;;;;;3.50;3.20;;;11.10;99.90;;;;;;6221356;23;20191;-92
2022/04/06 20:09:06;;;;;;;4.27;2.70;;;11.10;99.90;;;;;;6228788;23;20146;-93
2022/04/06 20:11:34;;;;;;;3.40;2.83;;;11.00;99.90;;;;;;6228385;23;20155;-92
2022/04/06 20:14:00;;;;;;;3.80;2.70;;;11.00;99.90;;;;;;6220977;23;20152;-92
2022/04/06 20:16:26;;;;;;;4.00;2.60;;;11.00;99.90;;;;;;6220119;23;20155;-91
2022/04/06 20:18:51;;;;;;;2.77;2.57;;;11.10;99.90;;;;;;6220982;23;20200;-91
2022/04/06 20:21:17;;;;;;;5.57;3.07;;;11.10;99.90;;;;;;6221189;23;20633;-92
2022/04/06 20:23:44;;;;;;;3.27;2.37;;;11.10;99.90;;;;;;6221297;23;20584;-93
2022/04/06 20:26:10;;;;;;;4.13;3.73;;;11.20;99.90;;;;;;6220442;23;20225;-91
2022/04/06 20:28:36;;;;;;;4.13;3.30;;;11.20;99.90;;;;;;6218420;23;20569;-92
2022/04/06 20:31:03;;;;;;;4.47;4.07;;;11.30;99.90;;;;;;6218032;23;20147;-92
2022/04/06 20:33:31;;;;;;;3.13;2.40;;;11.30;99.90;;;;;;6230070;23;20167;-91
2022/04/06 20:35:57;;;;;;;3.03;2.73;;;11.30;99.90;;;;;;6226629;23;20356;-90
2022/04/06 20:38:24;;;;;;;4.80;2.87;;;11.30;99.90;;;;;;6220533;23;20155;-92
2022/04/06 20:40:51;;;;;;;2.67;2.43;;;11.40;99.90;;;;;;6220561;23;20151;-91
2022/04/06 20:43:16;;;;;;;3.30;2.30;;;11.40;99.90;;;;;;6219359;23;20572;-93
2022/04/06 20:45:44;;;;;;;3.87;2.87;;;11.40;99.90;;;;;;6219991;23;20262;-91
2022/04/06 20:48:10;;;;;;;4.93;2.40;;;11.30;99.90;;;;;;6220634;23;20163;-92
2022/04/06 20:50:37;;;;;;;4.23;2.83;;;11.20;99.90;;;;;;6219718;23;20230;-91
2022/04/06 20:53:03;;;;;;;3.37;2.90;;;11.10;99.90;;;;;;6220137;23;20229;-92
2022/04/06 20:55:29;;;;;;;6.67;3.57;;;11.10;99.90;;;;;;6220125;23;20242;-92
2022/04/06 20:57:55;;;;;;;6.13;4.33;;;11.00;99.90;;;;;;6220063;23;20174;-92
2022/04/06 21:00:21;;;;;;;8.13;4.47;;;11.00;99.90;;;;;;6219675;23;20159;-91
2022/04/06 21:02:46;;;;;;;7.40;5.07;;;11.10;99.90;;;;;;6219232;23;20255;-91
2022/04/06 21:05:14;;;;;;;7.37;4.90;;;11.20;99.90;;;;;;6219769;23;20693;-91
2022/04/06 21:07:41;;;;;;;8.37;5.50;;;11.10;99.90;;;;;;6218842;23;20175;-92
2022/04/06 21:10:09;;;;;;;8.03;4.47;;;11.20;99.90;;;;;;6220656;23;20144;-93
2022/04/06 21:12:35;;;;;;;8.90;4.60;;;11.10;99.90;;;;;;6194504;23;20228;-93
2022/04/06 21:15:01;;;;;;;6.67;4.90;;;11.10;99.90;;;;;;6220215;23;20148;-92
2022/04/06 21:17:27;;;;;;;8.43;5.63;;;11.00;99.90;;;;;;6219062;23;20153;-93
2022/04/06 21:19:54;;;;;;;8.20;4.70;;;11.10;99.90;;;;;;6220365;23;20151;-90
2022/04/06 21:22:19;;;;;;;5.53;4.03;;;11.00;99.90;;;;;;6222619;23;20550;-92
2022/04/06 21:24:45;;;;;;;4.77;3.23;;;11.00;99.90;;;;;;6221699;23;20151;-92
2022/04/06 21:27:11;;;;;;;4.27;2.87;;;11.00;99.90;;;;;;6219566;23;20178;-91
2022/04/06 21:29:36;;;;;;;2.60;2.23;;;11.00;99.90;;;;;;6218077;23;20172;-94
2022/04/06 21:32:03;;;;;;;3.07;2.07;;;11.00;99.90;;;;;;6222593;23;20251;-93
2022/04/06 21:34:29;;;;;;;2.23;1.80;;;11.00;99.90;;;;;;6219184;23;20182;-92
2022/04/06 21:36:54;;;;;;;2.23;1.60;;;11.00;99.90;;;;;;6220303;23;20218;-93
2022/04/06 21:39:21;;;;;;;2.00;1.57;;;11.00;99.90;;;;;;6219476;23;20155;-93
2022/04/06 21:41:47;;;;;;;1.37;1.27;;;11.00;99.90;;;;;;6219048;23;20615;-93
2022/04/06 21:44:12;;;;;;;2.17;1.40;;;11.00;99.90;;;;;;6219728;23;20151;-93
2022/04/06 21:46:38;;;;;;;2.00;1.33;;;11.00;99.90;;;;;;6218240;23;20273;-93
2022/04/06 21:49:08;;;;;;;1.60;1.43;;;11.00;99.90;;;;;;6220093;23;20158;-93
2022/04/06 21:51:36;;;;;;;2.93;1.30;;;11.00;99.90;;;;;;6231712;23;20162;-92
2022/04/06 21:54:04;;;;;;;2.47;1.30;;;11.10;99.90;;;;;;6228142;23;20205;-92
2022/04/06 21:56:31;;;;;;;2.53;1.50;;;11.00;99.90;;;;;;6219569;23;20151;-93
2022/04/06 21:58:57;;;;;;;3.50;1.30;;;11.00;99.90;;;;;;6220619;23;20155;-91
2022/04/06 22:01:23;;;;;;;3.27;1.20;;;11.00;99.90;;;;;;6218054;23;20267;-92
2022/04/06 22:03:48;;;;;;;3.83;1.70;;;11.00;99.90;;;;;;6222255;23;20576;-93
2022/04/06 22:06:14;;;;;;;4.93;2.27;;;11.00;99.90;;;;;;6219854;23;20197;-92
2022/04/06 22:08:41;;;;;;;4.60;1.80;;;11.10;99.90;;;;;;6220187;23;20159;-93
2022/04/06 22:11:07;;;;;;;2.67;1.27;;;11.00;99.90;;;;;;6221336;23;20201;-93
2022/04/06 22:13:32;;;;;;;4.10;1.03;;;11.20;99.90;;;;;;6221084;23;20238;-94
2022/04/06 22:15:58;;;;;;;4.37;1.20;;;11.20;99.90;;;;;;6221399;23;20582;-93
2022/04/06 22:18:24;;;;;;;3.13;1.37;;;11.20;99.90;;;;;;6220392;23;20167;-92
2022/04/06 22:20:51;;;;;;;1.90;1.00;;;11.20;99.90;;;;;;6219925;23;20166;-93
2022/04/06 22:23:17;;;;;;;2.50;0.80;;;11.30;99.90;;;;;;6221187;23;20158;-94
2022/04/06 22:25:44;;;;;;;2.93;0.87;;;11.20;99.90;;;;;;6220859;23;20179;-93
2022/04/06 22:28:11;;;;;;;2.30;0.97;;;11.20;99.90;;;;;;6221230;23;20527;-91
2022/04/06 22:30:37;;;;;;;2.30;0.70;;;11.30;99.90;;;;;;6222117;23;20153;-92
2022/04/06 22:33:03;;;;;;;2.20;1.20;;;11.30;99.90;;;;;;6221715;23;20184;-92
2022/04/06 22:35:29;;;;;;;3.60;1.03;;;11.30;99.90;;;;;;6221516;23;20147;-93
2022/04/06 22:37:55;;;;;;;5.57;1.47;;;11.30;99.90;;;;;;6220457;23;20155;-93
2022/04/06 22:40:21;;;;;;;2.00;1.00;;;11.30;99.90;;;;;;6221401;23;20234;-93
2022/04/06 22:42:48;;;;;;;3.17;1.30;;;11.30;99.90;;;;;;6221756;23;20167;-95
2022/04/06 22:45:14;;;;;;;2.20;1.03;;;11.30;99.90;;;;;;6221011;23;20178;-94
2022/04/06 22:47:40;;;;;;;4.53;1.30;;;11.40;99.90;;;;;;6220868;23;20146;-92
2022/04/06 22:50:07;;;;;;;3.03;1.00;;;11.40;99.90;;;;;;6221343;23;20481;-93
2022/04/06 22:52:33;;;;;;;2.03;1.17;;;11.30;99.90;;;;;;6221115;23;20201;-95
2022/04/06 22:55:00;;;;;;;2.50;1.30;;;11.30;99.90;;;;;;6223968;23;20147;-93
2022/04/06 22:57:28;;;;;;;3.03;1.23;;;11.20;99.90;;;;;;6227983;23;20187;-94
2022/04/06 22:59:54;;;;;;;2.63;1.33;;;11.20;99.90;;;;;;6227493;23;20157;-92
2022/04/06 23:02:20;;;;;;;2.73;1.33;;;11.10;99.90;;;;;;6221941;23;20155;-95
2022/04/06 23:04:46;;;;;;;2.87;1.30;;;11.10;99.90;;;;;;6220164;23;20158;-93
2022/04/06 23:07:12;;;;;;;2.23;1.40;;;11.10;99.90;;;;;;6219480;23;20190;-93
2022/04/06 23:09:37;;;;;;;1.43;1.30;;;11.10;99.90;;;;;;6223970;23;20678;-92
2022/04/06 23:12:07;;;;;;;3.13;1.37;;;11.10;99.90;;;;;;6224261;23;20603;-93
2022/04/06 23:14:38;;;;;;;6.63;1.97;;;11.20;99.90;;;;;;6223670;23;20165;-93
2022/04/06 23:17:07;;;;;;;4.53;1.30;;;11.20;99.90;;;;;;6223218;23;20139;-93
2022/04/06 23:19:33;;;;;;;3.50;1.40;;;11.20;99.90;;;;;;6224820;23;20162;-93
2022/04/06 23:21:59;;;;;;;5.60;1.40;;;11.20;99.90;;;;;;6224725;23;20157;-94
2022/04/06 23:24:25;;;;;;;3.60;1.50;;;11.30;99.90;;;;;;6224055;23;20880;-93
2022/04/06 23:26:51;;;;;;;2.20;1.13;;;11.30;99.90;;;;;;6223750;23;20307;-93
2022/04/06 23:29:20;;;;;;;5.17;1.40;;;11.20;99.90;;;;;;6222785;23;20208;-94
2022/04/06 23:31:47;;;;;;;5.70;1.40;;;11.20;99.90;;;;;;6224160;23;20200;-94
2022/04/06 23:34:14;;;;;;;3.93;1.30;;;11.20;99.90;;;;;;6222911;23;20151;-94
2022/04/06 23:36:40;;;;;;;3.97;1.43;;;11.10;99.90;;;;;;6222419;23;20587;-94
2022/04/06 23:39:06;;;;;;;6.67;1.60;;;11.10;99.90;;;;;;6223370;23;20234;-94
2022/04/06 23:41:34;;;;;;;6.10;2.00;;;11.00;99.90;;;;;;6223196;23;20155;-95
2022/04/06 23:44:06;;;;;;;5.50;1.40;;;11.00;99.90;;;;;;6223487;23;20671;-94
2022/04/06 23:46:32;;;;;;;5.83;1.50;;;11.20;99.90;;;;;;6230772;23;20190;-94
2022/04/06 23:48:59;;;;;;;7.27;1.60;;;11.20;99.90;;;;;;6229875;23;20147;-96
2022/04/06 23:51:31;;;;;;;6.13;1.70;;;11.30;99.90;;;;;;6234892;23;20198;-96
2022/04/06 23:53:59;;;;;;;4.70;1.53;;;11.20;99.90;;;;;;6230110;23;20226;-96
2022/04/06 23:56:25;;;;;;;5.70;1.63;;;11.10;99.90;;;;;;6226813;23;20584;-96
2022/04/06 23:58:51;;;;;;;5.73;1.43;;;11.10;99.90;;;;;;6239229;23;20293;-95
